createdAt,value
2018-12-21T00:00:09.720Z,11.33
2018-12-21T00:02:38.307Z,12.30
2018-12-21T00:05:06.913Z,15.03
2018-12-21T00:07:35.530Z,14.20
2018-12-21T00:10:04.176Z,12.10
2018-12-21T00:12:38.828Z,10.67
2018-12-21T00:15:07.432Z,9.87
2018-12-21T00:20:14.975Z,9.17
2018-12-21T00:22:43.833Z,10.03
2018-12-21T00:25:13.014Z,11.00
2018-12-21T00:27:41.963Z,14.73
2018-12-21T00:30:11.904Z,11.27
2018-12-21T00:32:46.220Z,11.10
2018-12-21T00:35:51.499Z,8.23
2018-12-21T00:38:25.996Z,9.73
2018-12-21T00:41:00.342Z,6.77
2018-12-21T00:43:39.030Z,7.40
2018-12-21T00:46:14.301Z,8.10
2018-12-21T00:48:43.703Z,8.80
2018-12-21T00:51:12.935Z,9.37
2018-12-21T00:53:42.538Z,9.60
2018-12-21T00:56:12.089Z,7.60
2018-12-21T00:58:41.417Z,7.37
2018-12-21T01:01:10.743Z,8.00
2018-12-21T01:03:40.098Z,6.70
2018-12-21T01:06:09.275Z,7.93
2018-12-21T01:08:40.814Z,12.17
2018-12-21T01:11:10.131Z,7.37
2018-12-21T01:13:40.128Z,7.77
2018-12-21T01:16:09.506Z,8.80
2018-12-21T01:18:38.919Z,9.20
2018-12-21T01:21:10.514Z,10.07
2018-12-21T01:23:40.648Z,9.80
2018-12-21T01:26:09.129Z,8.17
2018-12-21T01:28:37.607Z,8.17
2018-12-21T01:31:06.109Z,12.77
2018-12-21T01:33:34.622Z,10.47
2018-12-21T01:36:03.247Z,7.37
2018-12-21T01:38:32.986Z,8.37
2018-12-21T01:41:01.571Z,7.47
2018-12-21T01:43:30.098Z,7.33
2018-12-21T01:45:58.683Z,6.47
2018-12-21T01:48:27.160Z,6.60
2018-12-21T01:50:55.749Z,9.63
2018-12-21T01:53:24.340Z,11.73
2018-12-21T01:55:52.867Z,6.00
2018-12-21T01:58:21.343Z,6.70
2018-12-21T02:00:49.891Z,6.33
2018-12-21T02:03:18.454Z,6.97
2018-12-21T02:05:46.982Z,7.10
2018-12-21T02:08:15.855Z,6.70
2018-12-21T02:10:44.444Z,7.10
2018-12-21T02:13:13.045Z,8.30
2018-12-21T02:15:41.597Z,11.73
2018-12-21T02:18:10.085Z,7.80
2018-12-21T02:20:38.891Z,23.17
2018-12-21T02:23:07.476Z,8.83
2018-12-21T02:25:39.320Z,7.20
2018-12-21T02:28:07.850Z,6.10
2018-12-21T02:30:36.472Z,6.07
2018-12-21T02:33:05.000Z,6.30
2018-12-21T02:35:33.575Z,6.40
2018-12-21T02:38:02.063Z,7.00
2018-12-21T02:40:31.342Z,6.30
2018-12-21T02:43:00.339Z,7.70
2018-12-21T02:45:29.835Z,6.30
2018-12-21T02:47:59.312Z,7.53
2018-12-21T02:50:28.866Z,8.17
2018-12-21T02:52:58.403Z,6.97
2018-12-21T02:55:27.987Z,7.73
2018-12-21T02:58:00.438Z,7.27
2018-12-21T03:00:29.215Z,10.27
2018-12-21T03:03:00.611Z,8.80
2018-12-21T03:05:30.067Z,52.40
2018-12-21T03:07:59.485Z,67.90
2018-12-21T03:10:28.601Z,9.07
2018-12-21T03:12:58.209Z,7.13
2018-12-21T03:15:27.388Z,7.30
2018-12-21T03:17:56.752Z,6.73
2018-12-21T03:20:25.279Z,7.10
2018-12-21T03:22:53.831Z,7.00
2018-12-21T03:25:22.686Z,6.13
2018-12-21T03:27:51.499Z,6.17
2018-12-21T03:30:20.213Z,4.90
2018-12-21T03:32:49.874Z,6.03
2018-12-21T03:35:18.898Z,6.77
2018-12-21T03:37:47.712Z,6.40
2018-12-21T03:40:16.720Z,6.27
2018-12-21T03:42:45.584Z,6.70
2018-12-21T03:45:14.708Z,8.93
2018-12-21T03:47:45.413Z,6.43
2018-12-21T03:50:14.399Z,6.63
2018-12-21T03:52:43.498Z,8.47
2018-12-21T03:55:12.282Z,4.53
2018-12-21T03:57:41.413Z,5.20
2018-12-21T04:00:12.351Z,7.37
2018-12-21T04:05:41.774Z,5.93
2018-12-21T04:08:18.967Z,5.67
2018-12-21T04:10:47.685Z,4.87
2018-12-21T04:13:16.399Z,4.40
2018-12-21T04:15:45.615Z,6.57
2018-12-21T04:18:14.215Z,5.87
2018-12-21T04:20:43.280Z,5.57
2018-12-21T04:23:12.303Z,8.47
2018-12-21T04:25:41.141Z,10.23
2018-12-21T04:28:10.803Z,8.33
2018-12-21T04:30:40.718Z,9.00
2018-12-21T04:33:11.316Z,10.17
2018-12-21T04:35:41.348Z,7.47
2018-12-21T04:38:10.563Z,7.87
2018-12-21T04:40:40.682Z,7.87
2018-12-21T04:43:11.622Z,7.53
2018-12-21T04:45:41.332Z,7.67
2018-12-21T04:48:11.332Z,8.67
2018-12-21T04:50:42.184Z,6.97
2018-12-21T04:53:11.792Z,5.93
2018-12-21T04:55:41.400Z,5.53
2018-12-21T04:58:11.289Z,5.80
2018-12-21T05:03:45.447Z,5.20
2018-12-21T05:06:15.158Z,2.87
2018-12-21T05:08:45.277Z,3.07
2018-12-21T05:11:16.523Z,3.10
2018-12-21T05:13:46.273Z,2.63
2018-12-21T05:16:16.020Z,1.30
2018-12-21T05:18:45.320Z,1.90
2018-12-21T05:21:15.261Z,1.20
2018-12-21T05:23:44.868Z,1.40
2018-12-21T05:26:14.783Z,1.00
2018-12-21T05:31:28.418Z,1.83
2018-12-21T05:33:56.098Z,1.20
2018-12-21T05:36:38.404Z,0.90
2018-12-21T05:39:08.525Z,1.00
2018-12-21T05:41:38.027Z,0.90
2018-12-21T05:46:51.855Z,1.63
2018-12-21T05:49:21.391Z,2.93
2018-12-21T05:51:50.855Z,2.80
2018-12-21T05:54:20.274Z,1.83
2018-12-21T05:56:49.450Z,2.30
2018-12-21T05:59:19.067Z,2.00
2018-12-21T06:01:48.576Z,3.50
2018-12-21T06:04:18.934Z,14.30
2018-12-21T06:06:48.418Z,5.67
2018-12-21T06:09:17.927Z,2.00
2018-12-21T06:11:47.196Z,1.50
2018-12-21T06:14:17.348Z,2.60
2018-12-21T06:16:46.868Z,1.80
2018-12-21T06:19:16.600Z,2.00
2018-12-21T06:21:45.879Z,2.20
2018-12-21T06:24:15.248Z,2.00
2018-12-21T06:26:47.751Z,2.07
2018-12-21T06:29:16.973Z,3.03
2018-12-21T06:31:45.927Z,2.20
2018-12-21T06:34:16.988Z,7.57
2018-12-21T06:36:47.117Z,12.13
2018-12-21T06:39:15.646Z,18.57
2018-12-21T06:44:20.436Z,2.70
2018-12-21T06:46:49.940Z,3.03
2018-12-21T06:49:20.905Z,2.97
2018-12-21T07:10:34.614Z,63.80
2018-12-21T07:13:07.629Z,16.90
2018-12-21T07:15:39.200Z,4.97
2018-12-21T07:18:09.789Z,2.70
2018-12-21T07:20:39.465Z,3.80
2018-12-21T07:23:09.002Z,4.17
2018-12-21T07:25:38.305Z,3.90
2018-12-21T07:28:09.136Z,3.80
2018-12-21T07:30:39.489Z,4.87
2018-12-21T07:33:10.429Z,6.90
2018-12-21T07:43:01.178Z,10.80
2018-12-21T07:45:31.163Z,10.63
2018-12-21T08:13:20.225Z,5.07
2018-12-21T08:21:32.465Z,3.13
2018-12-21T08:26:46.424Z,7.73
2018-12-21T08:29:18.479Z,6.40
2018-12-21T08:31:49.322Z,6.00
2018-12-21T09:14:10.094Z,7.07
2018-12-21T09:16:39.805Z,5.83
2018-12-21T09:19:09.479Z,4.90
2018-12-21T09:21:40.640Z,4.03
2018-12-21T09:24:10.434Z,4.60
2018-12-21T09:26:41.168Z,3.90
2018-12-21T09:29:21.872Z,4.57
2018-12-21T09:31:54.140Z,6.40
2018-12-21T09:39:26.719Z,6.73
2018-12-21T09:43:04.046Z,5.40
2018-12-21T10:03:33.777Z,4.77
2018-12-21T10:08:56.994Z,4.13
2018-12-21T10:11:26.662Z,4.20
2018-12-21T10:14:08.250Z,4.00
2018-12-21T10:16:38.266Z,4.27
2018-12-21T10:20:44.847Z,3.80
2018-12-21T10:23:15.070Z,4.30
2018-12-21T10:25:44.780Z,5.73
2018-12-21T10:28:13.977Z,4.07
2018-12-21T10:30:43.289Z,4.00
2018-12-21T10:33:12.447Z,3.87
2018-12-21T10:35:46.793Z,3.60
2018-12-21T10:38:15.948Z,4.27
2018-12-21T10:40:45.394Z,3.40
2018-12-21T10:43:16.947Z,3.20
2018-12-21T10:45:50.756Z,3.43
2018-12-21T10:48:20.741Z,9.13
2018-12-21T10:50:50.995Z,5.47
2018-12-21T10:53:20.154Z,16.87
2018-12-21T11:16:48.259Z,4.50
2018-12-21T11:19:17.811Z,6.70
2018-12-21T11:21:47.624Z,5.27
2018-12-21T11:24:20.306Z,5.20
2018-12-21T11:42:32.558Z,4.30
2018-12-21T11:52:41.972Z,16.60
2018-12-21T11:55:10.832Z,11.30
2018-12-21T12:08:47.597Z,1.50
2018-12-21T12:14:18.663Z,1.70
2018-12-21T12:16:49.532Z,1.77
2018-12-21T12:19:22.826Z,1.50
2018-12-21T12:22:02.368Z,1.20
2018-12-21T12:24:35.478Z,1.57
2018-12-21T12:29:13.745Z,1.50
2018-12-21T12:31:48.318Z,2.87
2018-12-21T12:38:43.536Z,2.77
2018-12-21T12:41:12.292Z,3.20
2018-12-21T12:43:41.567Z,3.30
2018-12-21T12:46:10.365Z,5.23
2018-12-21T12:48:39.204Z,3.87
2018-12-21T12:51:08.040Z,7.93
2018-12-21T12:53:36.934Z,3.87
2018-12-21T12:56:14.991Z,4.53
2018-12-21T12:58:44.583Z,3.70
2018-12-21T13:01:13.432Z,2.60
2018-12-21T13:03:42.169Z,3.30
2018-12-21T13:06:42.317Z,3.37
2018-12-21T13:09:11.459Z,2.50
2018-12-21T13:11:59.120Z,4.00
2018-12-21T13:18:49.040Z,3.77
2018-12-21T13:32:07.523Z,10.93
2018-12-21T13:34:44.247Z,9.30
2018-12-21T13:37:16.468Z,10.27
2018-12-21T13:45:01.561Z,7.13
2018-12-21T13:47:30.596Z,6.63
2018-12-21T13:49:59.549Z,13.40
2018-12-21T13:52:28.449Z,12.63
2018-12-21T13:54:57.437Z,4.87
2018-12-21T13:57:27.080Z,8.20
2018-12-21T14:02:34.459Z,8.50
2018-12-21T14:05:03.431Z,12.73
2018-12-21T14:09:40.856Z,16.10
2018-12-21T14:12:10.051Z,10.77
2018-12-21T14:14:38.911Z,14.13
2018-12-21T14:17:08.785Z,16.73
2018-12-21T14:19:38.215Z,15.90
2018-12-21T14:22:06.917Z,13.47
2018-12-21T14:24:36.300Z,11.83
2018-12-21T14:27:05.451Z,9.77
2018-12-21T14:29:34.542Z,13.80
2018-12-21T14:32:03.300Z,13.90
2018-12-21T14:34:32.821Z,12.93
2018-12-21T14:37:01.903Z,13.77
2018-12-21T14:39:30.714Z,13.73
2018-12-21T14:44:38.561Z,10.13
2018-12-21T14:47:08.874Z,9.87
2018-12-21T14:49:37.601Z,9.53
2018-12-21T14:52:06.509Z,10.17
2018-12-21T14:54:40.628Z,11.47
2018-12-21T14:57:09.781Z,11.07
2018-12-21T14:59:38.870Z,12.30
2018-12-21T15:02:12.749Z,13.70
2018-12-21T15:04:51.700Z,12.67
2018-12-21T15:07:20.414Z,9.73
2018-12-21T15:09:49.092Z,17.80
2018-12-21T15:14:58.495Z,25.77
2018-12-21T15:17:27.450Z,48.20
2018-12-21T15:19:56.728Z,66.50
2018-12-21T15:22:25.363Z,27.57
2018-12-21T15:24:55.439Z,14.13
2018-12-21T15:27:25.058Z,18.30
2018-12-21T15:29:54.832Z,14.90
2018-12-21T15:32:23.465Z,9.40
2018-12-21T15:34:51.983Z,3.20
2018-12-21T15:37:20.710Z,4.17
2018-12-21T15:39:49.216Z,4.27
2018-12-21T15:42:17.822Z,8.83
2018-12-21T15:44:47.230Z,15.05
2018-12-21T15:50:02.645Z,5.10
2018-12-21T15:52:32.329Z,2.27
2018-12-21T15:55:00.959Z,1.30
2018-12-21T15:57:29.455Z,2.40
2018-12-21T15:59:58.036Z,2.63
2018-12-21T16:02:26.518Z,2.47
2018-12-21T16:04:54.980Z,1.53
2018-12-21T16:07:23.545Z,1.63
2018-12-21T16:09:52.387Z,2.63
2018-12-21T16:12:20.940Z,2.33
2018-12-21T16:14:49.400Z,3.03
2018-12-21T16:17:18.148Z,3.80
2018-12-21T16:19:46.688Z,3.60
2018-12-21T16:22:15.259Z,4.80
2018-12-21T16:24:45.718Z,5.17
2018-12-21T16:27:23.765Z,5.80
2018-12-21T16:32:32.550Z,7.37
2018-12-21T16:35:01.151Z,9.53
2018-12-21T16:37:29.711Z,7.30
2018-12-21T16:39:58.142Z,7.60
2018-12-21T16:42:26.843Z,4.97
2018-12-21T16:44:55.479Z,2.93
2018-12-21T16:47:24.094Z,3.50
2018-12-21T16:49:52.808Z,3.43
2018-12-21T16:52:21.314Z,2.60
2018-12-21T16:54:49.885Z,2.20
2018-12-21T16:57:18.672Z,1.70
2018-12-21T16:59:47.205Z,1.77
2018-12-21T17:02:16.963Z,1.70
2018-12-21T17:04:45.593Z,1.10
2018-12-21T17:07:14.180Z,2.20
2018-12-21T17:09:42.734Z,1.80
2018-12-21T17:12:11.219Z,1.20
2018-12-21T17:14:39.676Z,1.13
2018-12-21T17:17:08.357Z,0.80
2018-12-21T17:19:37.048Z,1.00
2018-12-21T17:22:05.966Z,1.20
2018-12-21T17:24:35.850Z,1.60
2018-12-21T17:27:04.817Z,1.90
2018-12-21T17:29:35.175Z,1.90
2018-12-21T17:32:04.712Z,8.63
2018-12-21T17:37:13.702Z,1.43
2018-12-21T17:39:44.759Z,1.47
2018-12-21T17:42:13.310Z,1.60
2018-12-21T17:44:43.638Z,1.43
2018-12-21T17:47:22.768Z,1.53
2018-12-21T17:49:58.748Z,1.50
2018-12-21T17:52:42.409Z,1.40
2018-12-21T17:55:13.122Z,1.70
2018-12-21T18:03:33.936Z,1.97
2018-12-21T18:06:04.302Z,1.43
2018-12-21T18:08:33.712Z,1.30
2018-12-21T18:11:03.450Z,1.13
2018-12-21T18:13:31.986Z,1.53
2018-12-21T18:16:04.270Z,1.47
2018-12-21T18:18:33.141Z,1.30
2018-12-21T18:21:02.467Z,1.20
2018-12-21T18:23:32.123Z,1.30
2018-12-21T18:26:00.930Z,1.00
2018-12-21T18:29:33.637Z,1.17
2018-12-21T18:32:16.570Z,1.60
2018-12-21T18:35:04.044Z,1.47
2018-12-21T18:37:59.613Z,2.07
2018-12-21T18:40:29.294Z,2.37
2018-12-21T18:43:00.182Z,2.67
2018-12-21T18:45:29.027Z,3.37
2018-12-21T18:47:59.622Z,7.77
2018-12-21T18:50:29.263Z,7.70
2018-12-21T18:52:57.780Z,4.77
2018-12-21T18:55:26.835Z,3.17
2018-12-21T18:57:55.463Z,3.70
2018-12-21T19:03:09.049Z,2.97
2018-12-21T19:05:38.311Z,2.97
2018-12-21T19:08:06.880Z,3.23
2018-12-21T19:10:35.613Z,3.17
2018-12-21T19:13:04.293Z,3.50
2018-12-21T19:15:32.973Z,4.07
2018-12-21T19:18:02.113Z,4.17
2018-12-21T19:20:30.934Z,4.00
2018-12-21T19:22:59.588Z,4.20
2018-12-21T19:25:28.376Z,5.23
2018-12-21T19:27:56.992Z,2.70
2018-12-21T19:30:25.452Z,1.93
2018-12-21T19:32:53.961Z,1.87
2018-12-21T19:35:27.433Z,1.70
2018-12-21T19:37:53.360Z,1.57
2018-12-21T19:40:22.142Z,1.43
2018-12-21T19:45:45.632Z,1.83
2018-12-21T19:48:14.293Z,2.27
2018-12-21T19:50:42.852Z,2.40
2018-12-21T19:53:11.321Z,7.00
2018-12-21T19:55:51.916Z,2.57
2018-12-21T19:58:20.412Z,2.53
2018-12-21T20:00:48.903Z,3.60
2018-12-21T20:03:17.335Z,3.77
2018-12-21T20:05:45.866Z,6.53
2018-12-21T20:08:14.304Z,3.03
2018-12-21T20:10:42.748Z,3.33
2018-12-21T20:13:11.249Z,3.83
2018-12-21T20:15:39.733Z,2.90
2018-12-21T20:18:08.291Z,2.63
2018-12-21T20:20:36.714Z,1.67
2018-12-21T20:23:05.166Z,1.70
2018-12-21T20:25:33.644Z,0.90
2018-12-21T20:28:02.108Z,0.77
2018-12-21T20:30:30.546Z,0.63
2018-12-21T20:32:59.120Z,1.20
2018-12-21T20:35:27.758Z,0.60
2018-12-21T20:37:56.442Z,0.57
2018-12-21T20:40:25.040Z,0.53
2018-12-21T20:42:53.569Z,1.87
2018-12-21T20:45:27.862Z,0.90
2018-12-21T20:47:56.376Z,0.93
2018-12-21T20:50:25.107Z,0.73
2018-12-21T20:52:53.640Z,1.50
2018-12-21T20:55:22.390Z,1.33
2018-12-21T20:57:53.547Z,0.70
2018-12-21T21:00:22.021Z,0.50
2018-12-21T21:02:50.434Z,0.80
2018-12-21T21:05:18.912Z,0.37
2018-12-21T21:07:47.383Z,0.37
2018-12-21T21:10:16.252Z,0.80
2018-12-21T21:12:44.704Z,0.40
2018-12-21T21:15:14.099Z,1.00
2018-12-21T21:17:42.676Z,2.43
2018-12-21T21:20:13.756Z,1.50
2018-12-21T21:22:42.473Z,0.63
2018-12-21T21:25:10.934Z,0.50
2018-12-21T21:27:39.543Z,0.43
2018-12-21T21:30:12.852Z,0.40
2018-12-21T21:32:41.492Z,0.60
2018-12-21T21:35:10.116Z,0.50
2018-12-21T21:37:38.763Z,0.50
2018-12-21T21:40:11.471Z,0.50
2018-12-21T21:42:39.966Z,1.20
2018-12-21T21:45:09.191Z,1.53
2018-12-21T21:47:37.664Z,0.90
2018-12-21T21:50:07.355Z,1.00
2018-12-21T21:52:36.088Z,1.03
2018-12-21T21:55:04.873Z,0.70
2018-12-21T21:57:39.152Z,0.80
2018-12-21T22:00:04.903Z,1.80
2018-12-21T22:02:33.512Z,1.07
2018-12-21T22:05:02.003Z,0.60
2018-12-21T22:07:30.476Z,0.50
2018-12-21T22:09:59.010Z,1.10
2018-12-21T22:12:27.972Z,0.80
2018-12-21T22:14:56.688Z,0.50
2018-12-21T22:17:25.149Z,0.50
2018-12-21T22:19:53.715Z,0.60
2018-12-21T22:22:22.228Z,0.57
2018-12-21T22:24:50.974Z,0.70
2018-12-21T22:27:19.615Z,1.00
2018-12-21T22:29:48.210Z,0.60
2018-12-21T22:32:17.183Z,0.70
2018-12-21T22:34:46.658Z,1.00
2018-12-21T22:37:15.519Z,0.50
2018-12-21T22:39:45.633Z,0.70
2018-12-21T22:42:15.140Z,0.60
2018-12-21T22:44:44.251Z,0.70
2018-12-21T22:47:12.822Z,1.10
2018-12-21T22:49:41.299Z,2.00
2018-12-21T22:52:09.843Z,2.60
2018-12-21T22:54:38.552Z,1.20
2018-12-21T22:57:07.197Z,0.97
2018-12-21T22:59:35.700Z,1.50
2018-12-21T23:02:04.331Z,1.90
2018-12-21T23:04:32.887Z,1.00
2018-12-21T23:07:01.407Z,0.80
2018-12-21T23:09:30.737Z,0.50
2018-12-21T23:11:59.421Z,1.70
2018-12-21T23:14:27.877Z,3.20
2018-12-21T23:16:57.468Z,1.47
2018-12-21T23:19:41.442Z,3.90
2018-12-21T23:22:10.551Z,2.87
2018-12-21T23:24:39.209Z,6.53
2018-12-21T23:27:09.613Z,4.30
2018-12-21T23:29:39.179Z,1.93
2018-12-21T23:32:09.613Z,0.97
2018-12-21T23:34:39.677Z,0.63
2018-12-21T23:37:09.795Z,0.83
2018-12-21T23:39:40.987Z,0.80
2018-12-21T23:42:15.026Z,1.27
2018-12-21T23:44:43.548Z,1.20
2018-12-21T23:47:12.745Z,1.90
2018-12-21T23:49:41.621Z,0.83
2018-12-21T23:52:10.838Z,1.17
2018-12-21T23:54:39.284Z,2.10
2018-12-21T23:57:07.731Z,1.60
2018-12-21T23:59:36.401Z,1.47
